createdAt,value
2022-08-28T00:00:15.669Z,99.90
2022-08-28T00:02:43.117Z,99.90
2022-08-28T00:05:11.640Z,99.90
2022-08-28T00:07:39.165Z,99.90
2022-08-28T00:10:07.696Z,99.90
2022-08-28T00:12:36.877Z,99.90
2022-08-28T00:15:13.029Z,99.90
2022-08-28T00:17:40.165Z,99.90
2022-08-28T00:20:10.073Z,99.90
2022-08-28T00:22:38.329Z,99.90
2022-08-28T00:25:06.905Z,99.90
2022-08-28T00:27:52.336Z,99.90
2022-08-28T00:30:50.790Z,99.90
2022-08-28T00:33:22.812Z,99.90
2022-08-28T00:35:50.040Z,99.90
2022-08-28T00:38:19.246Z,99.90
2022-08-28T00:40:50.419Z,99.90
2022-08-28T00:43:35.879Z,99.90
2022-08-28T00:46:04.547Z,99.90
2022-08-28T00:48:31.485Z,99.90
2022-08-28T00:51:17.108Z,99.90
2022-08-28T00:53:44.245Z,99.90
2022-08-28T00:56:13.141Z,99.90
2022-08-28T00:58:42.443Z,99.90
2022-08-28T01:01:09.336Z,99.90
2022-08-28T01:03:36.950Z,99.90
2022-08-28T01:06:04.022Z,99.90
2022-08-28T01:08:31.302Z,99.90
2022-08-28T01:10:59.577Z,99.90
2022-08-28T01:13:26.889Z,99.90
2022-08-28T01:15:54.557Z,99.90
2022-08-28T01:18:22.257Z,99.90
2022-08-28T01:21:02.057Z,99.90
2022-08-28T01:23:53.632Z,99.90
2022-08-28T01:26:21.012Z,99.90
2022-08-28T01:28:48.174Z,99.90
2022-08-28T01:31:16.488Z,99.90
2022-08-28T01:33:44.215Z,99.90
2022-08-28T01:36:12.528Z,99.90
2022-08-28T01:38:40.808Z,99.90
2022-08-28T01:41:08.154Z,99.90
2022-08-28T01:43:34.866Z,99.90
2022-08-28T01:46:04.617Z,99.90
2022-08-28T01:48:35.787Z,99.90
2022-08-28T01:51:03.954Z,99.90
2022-08-28T01:53:33.142Z,99.90
2022-08-28T01:56:01.941Z,99.90
2022-08-28T01:58:30.235Z,99.90
2022-08-28T02:00:57.430Z,99.90
2022-08-28T02:03:24.283Z,99.90
2022-08-28T02:05:51.393Z,99.90
2022-08-28T02:08:18.242Z,99.90
2022-08-28T02:10:46.785Z,99.90
2022-08-28T02:13:13.718Z,99.90
2022-08-28T02:15:42.348Z,99.90
2022-08-28T02:18:10.163Z,99.90
2022-08-28T02:20:37.329Z,99.90
2022-08-28T02:23:04.343Z,99.90
2022-08-28T02:25:31.054Z,99.90
2022-08-28T02:27:57.864Z,99.90
2022-08-28T02:30:24.803Z,99.90
2022-08-28T02:32:51.818Z,99.90
2022-08-28T02:35:19.701Z,99.90
2022-08-28T02:37:47.867Z,99.90
2022-08-28T02:40:16.370Z,99.90
2022-08-28T02:42:43.741Z,99.90
2022-08-28T02:45:11.767Z,99.90
2022-08-28T02:47:43.708Z,99.90
2022-08-28T02:50:12.984Z,99.90
2022-08-28T02:52:40.553Z,99.90
2022-08-28T02:55:09.060Z,99.90
2022-08-28T02:57:35.811Z,99.90
2022-08-28T03:00:12.031Z,99.90
2022-08-28T03:02:39.960Z,99.90
2022-08-28T03:05:07.791Z,99.90
2022-08-28T03:07:34.685Z,99.90
2022-08-28T03:10:01.691Z,99.90
2022-08-28T03:12:28.424Z,99.90
2022-08-28T03:14:55.332Z,99.90
2022-08-28T03:17:22.153Z,99.90
2022-08-28T03:19:52.155Z,99.90
2022-08-28T03:22:43.160Z,99.90
2022-08-28T03:25:11.295Z,99.90
2022-08-28T03:27:38.521Z,99.90
2022-08-28T03:30:07.857Z,99.90
2022-08-28T03:32:34.739Z,99.90
2022-08-28T03:35:02.119Z,99.90
2022-08-28T03:37:28.937Z,99.90
2022-08-28T03:39:55.687Z,99.90
2022-08-28T03:42:22.991Z,99.90
2022-08-28T03:44:49.687Z,99.90
2022-08-28T03:47:16.637Z,99.90
2022-08-28T03:49:45.276Z,99.90
2022-08-28T03:52:12.470Z,99.90
2022-08-28T03:54:39.350Z,99.90
2022-08-28T03:57:07.513Z,99.90
2022-08-28T03:59:35.810Z,99.90
2022-08-28T04:02:02.545Z,99.90
2022-08-28T04:04:29.310Z,99.90
2022-08-28T04:06:56.015Z,99.90
2022-08-28T04:09:22.833Z,99.90
2022-08-28T04:11:49.480Z,99.90
2022-08-28T04:14:16.415Z,99.90
2022-08-28T04:16:43.211Z,99.90
2022-08-28T04:19:10.098Z,99.90
2022-08-28T04:21:36.972Z,99.90
2022-08-28T04:24:07.840Z,99.90
2022-08-28T04:26:36.750Z,99.90
2022-08-28T04:29:04.579Z,99.90
2022-08-28T04:31:31.917Z,99.90
2022-08-28T04:34:04.962Z,99.90
2022-08-28T04:36:33.574Z,99.90
2022-08-28T04:39:00.393Z,99.90
2022-08-28T04:41:27.664Z,99.90
2022-08-28T04:43:57.157Z,99.90
2022-08-28T04:46:24.440Z,99.90
2022-08-28T04:48:51.172Z,99.90
2022-08-28T04:51:18.023Z,99.90
2022-08-28T04:53:44.745Z,99.90
2022-08-28T04:56:13.689Z,99.90
2022-08-28T04:58:41.787Z,99.90
2022-08-28T05:01:15.176Z,99.90
2022-08-28T05:03:42.319Z,99.90
2022-08-28T05:06:09.115Z,99.90
2022-08-28T05:08:35.912Z,99.90
2022-08-28T05:11:30.730Z,99.90
2022-08-28T05:14:01.005Z,99.90
2022-08-28T05:16:27.834Z,99.90
2022-08-28T05:18:54.596Z,99.90
2022-08-28T05:21:22.923Z,99.90
2022-08-28T05:23:51.422Z,99.90
2022-08-28T05:26:19.802Z,99.90
2022-08-28T05:28:48.333Z,99.90
2022-08-28T05:31:20.969Z,99.90
2022-08-28T05:33:49.229Z,99.90
2022-08-28T05:36:18.876Z,99.90
2022-08-28T05:38:45.750Z,99.90
2022-08-28T05:41:12.466Z,99.90
2022-08-28T05:43:39.476Z,99.90
2022-08-28T05:46:10.379Z,99.90
2022-08-28T05:48:39.401Z,99.90
2022-08-28T05:51:15.676Z,99.90
2022-08-28T05:53:43.530Z,99.90
2022-08-28T05:56:12.800Z,99.90
2022-08-28T05:58:40.363Z,99.90
2022-08-28T06:01:22.622Z,99.90
2022-08-28T06:04:00.957Z,99.90
2022-08-28T06:06:29.466Z,99.90
2022-08-28T06:09:02.199Z,99.90
2022-08-28T06:11:31.037Z,99.90
2022-08-28T06:14:02.629Z,99.90
2022-08-28T06:16:31.353Z,99.90
2022-08-28T06:18:58.396Z,99.90
2022-08-28T06:21:25.365Z,99.90
2022-08-28T06:23:52.164Z,99.90
2022-08-28T06:26:18.882Z,99.90
2022-08-28T06:28:45.674Z,99.90
2022-08-28T06:31:23.718Z,99.90
2022-08-28T06:33:53.973Z,99.90
2022-08-28T06:36:21.018Z,99.90
2022-08-28T06:38:47.702Z,99.90
2022-08-28T06:41:15.562Z,99.90
2022-08-28T06:43:42.560Z,99.90
2022-08-28T06:46:09.377Z,99.90
2022-08-28T06:48:36.336Z,99.90
2022-08-28T06:51:06.155Z,99.90
2022-08-28T06:53:33.438Z,99.90
2022-08-28T06:56:06.355Z,99.90
2022-08-28T06:58:34.852Z,99.90
2022-08-28T07:01:14.282Z,99.90
2022-08-28T07:03:42.568Z,99.90
2022-08-28T07:06:13.364Z,99.90
2022-08-28T07:08:41.292Z,99.90
2022-08-28T07:11:13.193Z,99.90
2022-08-28T07:13:41.159Z,99.90
2022-08-28T07:16:08.389Z,99.90
2022-08-28T07:18:35.899Z,99.90
2022-08-28T07:21:03.085Z,99.90
2022-08-28T07:23:31.968Z,99.90
2022-08-28T07:25:58.705Z,99.90
2022-08-28T07:28:25.695Z,99.90
2022-08-28T07:31:00.595Z,99.90
2022-08-28T07:33:28.443Z,99.90
2022-08-28T07:35:56.605Z,99.90
2022-08-28T07:38:25.353Z,99.90
2022-08-28T07:40:52.602Z,99.90
2022-08-28T07:43:38.072Z,99.90
2022-08-28T07:46:07.634Z,99.90
2022-08-28T07:48:35.589Z,99.90
2022-08-28T07:51:03.893Z,99.90
2022-08-28T07:53:35.768Z,99.90
2022-08-28T07:56:04.414Z,99.90
2022-08-28T07:58:32.255Z,99.90
2022-08-28T08:00:59.786Z,99.90
2022-08-28T08:03:26.529Z,99.90
2022-08-28T08:05:55.156Z,99.90
2022-08-28T08:08:22.414Z,99.90
2022-08-28T08:10:59.588Z,99.90
2022-08-28T08:13:29.555Z,99.90
2022-08-28T08:16:18.985Z,99.90
2022-08-28T08:18:48.615Z,99.90
2022-08-28T08:21:17.858Z,99.90
2022-08-28T08:23:45.123Z,99.90
2022-08-28T08:26:14.463Z,99.90
2022-08-28T08:28:42.646Z,99.90
2022-08-28T08:31:15.363Z,99.90
2022-08-28T08:33:44.686Z,99.90
2022-08-28T08:36:13.033Z,99.90
2022-08-28T08:38:39.731Z,99.90
2022-08-28T08:41:29.262Z,99.90
2022-08-28T08:44:33.938Z,99.90
2022-08-28T08:47:14.883Z,99.90
2022-08-28T08:49:50.704Z,99.90
2022-08-28T08:52:37.404Z,99.90
2022-08-28T08:55:24.238Z,99.90
2022-08-28T08:58:02.092Z,99.90
2022-08-28T09:00:30.957Z,99.90
2022-08-28T09:03:14.254Z,99.90
2022-08-28T09:06:00.378Z,99.90
2022-08-28T09:08:38.679Z,99.90
2022-08-28T09:11:25.796Z,99.90
2022-08-28T09:13:59.413Z,99.90
2022-08-28T09:16:36.790Z,99.90
2022-08-28T09:19:05.335Z,99.90
2022-08-28T09:21:35.262Z,99.90
2022-08-28T09:24:05.882Z,99.90
2022-08-28T09:26:37.933Z,99.90
2022-08-28T09:29:15.077Z,99.90
2022-08-28T09:31:42.143Z,99.90
2022-08-28T09:34:25.268Z,99.90
2022-08-28T09:36:53.966Z,99.90
2022-08-28T09:39:23.854Z,99.90
2022-08-28T09:42:15.205Z,99.90
2022-08-28T09:44:48.966Z,99.90
2022-08-28T09:47:46.946Z,99.90
2022-08-28T09:50:31.294Z,99.90
2022-08-28T09:53:10.095Z,99.90
2022-08-28T09:55:44.921Z,99.90
2022-08-28T09:58:12.350Z,99.90
2022-08-28T10:00:59.290Z,99.90
2022-08-28T10:03:34.738Z,99.90
2022-08-28T10:06:39.778Z,99.90
2022-08-28T10:09:40.208Z,99.90
2022-08-28T10:12:35.580Z,99.90
2022-08-28T10:15:43.083Z,99.90
2022-08-28T10:18:32.938Z,99.90
2022-08-28T10:21:28.857Z,99.90
2022-08-28T10:24:33.972Z,99.90
2022-08-28T10:27:22.648Z,99.90
2022-08-28T10:30:12.437Z,99.90
2022-08-28T10:32:48.823Z,99.10
2022-08-28T10:35:23.102Z,99.60
2022-08-28T10:38:37.569Z,99.80
2022-08-28T10:41:28.507Z,99.90
2022-08-28T10:43:57.231Z,99.30
2022-08-28T10:46:35.532Z,98.40
2022-08-28T10:49:30.121Z,99.80
2022-08-28T10:52:25.812Z,99.90
2022-08-28T10:55:11.857Z,99.90
2022-08-28T10:57:49.082Z,99.90
2022-08-28T11:00:24.408Z,99.90
2022-08-28T11:03:33.010Z,99.60
2022-08-28T11:06:11.414Z,99.40
2022-08-28T11:08:39.609Z,98.90
2022-08-28T11:11:12.255Z,97.90
2022-08-28T11:13:53.783Z,98.50
2022-08-28T11:16:28.365Z,98.10
2022-08-28T11:19:28.786Z,98.20
2022-08-28T11:22:15.014Z,97.80
2022-08-28T11:24:49.793Z,97.70
2022-08-28T11:27:29.610Z,96.00
2022-08-28T11:30:09.425Z,95.50
2022-08-28T11:32:36.483Z,96.50
2022-08-28T11:35:07.850Z,96.10
2022-08-28T11:37:41.277Z,96.30
2022-08-28T11:40:18.405Z,95.60
2022-08-28T11:42:48.682Z,93.40
2022-08-28T11:45:21.500Z,92.60
2022-08-28T11:47:54.044Z,93.90
2022-08-28T11:50:27.972Z,94.50
2022-08-28T11:53:33.051Z,94.00
2022-08-28T11:56:13.419Z,94.80
2022-08-28T11:59:39.366Z,95.40
2022-08-28T12:02:39.332Z,94.80
2022-08-28T12:05:06.291Z,95.30
2022-08-28T12:07:41.473Z,95.20
2022-08-28T12:10:20.471Z,95.10
2022-08-28T12:12:47.135Z,94.90
2022-08-28T12:15:29.696Z,94.60
2022-08-28T12:18:11.912Z,94.60
2022-08-28T12:20:58.530Z,94.00
2022-08-28T12:23:44.787Z,92.40
2022-08-28T12:26:38.737Z,92.30
2022-08-28T12:29:20.812Z,92.70
2022-08-28T12:32:11.688Z,92.50
2022-08-28T12:34:49.980Z,92.60
2022-08-28T12:37:52.249Z,91.30
2022-08-28T12:40:27.056Z,90.60
2022-08-28T12:43:00.645Z,88.00
2022-08-28T12:45:44.197Z,86.90
2022-08-28T12:48:33.883Z,89.30
2022-08-28T12:51:19.293Z,90.00
2022-08-28T12:53:48.750Z,91.00
2022-08-28T12:56:17.718Z,91.00
2022-08-28T12:58:45.644Z,90.80
2022-08-28T13:01:21.524Z,90.80
2022-08-28T13:04:02.134Z,90.50
2022-08-28T13:06:35.936Z,90.80
2022-08-28T13:09:22.490Z,91.10
2022-08-28T13:11:51.426Z,88.90
2022-08-28T13:14:37.210Z,88.50
2022-08-28T13:17:04.272Z,88.00
2022-08-28T13:19:32.959Z,89.50
2022-08-28T13:22:02.566Z,90.20
2022-08-28T13:24:35.501Z,90.90
2022-08-28T13:27:06.748Z,90.90
2022-08-28T13:29:34.211Z,91.00
2022-08-28T13:32:09.598Z,91.00
2022-08-28T13:34:38.576Z,91.30
2022-08-28T13:37:46.322Z,91.20
2022-08-28T13:40:38.215Z,91.10
2022-08-28T13:43:07.036Z,90.60
2022-08-28T13:45:43.134Z,90.10
2022-08-28T13:48:15.979Z,89.70
2022-08-28T13:50:46.736Z,84.80
2022-08-28T13:53:17.855Z,85.40
2022-08-28T13:55:45.648Z,87.40
2022-08-28T13:58:13.764Z,88.20
2022-08-28T14:00:44.071Z,90.30
2022-08-28T14:03:29.522Z,90.90
2022-08-28T14:05:56.636Z,90.70
2022-08-28T14:08:24.038Z,90.80
2022-08-28T14:10:50.908Z,90.60
2022-08-28T14:13:18.672Z,90.60
2022-08-28T14:15:45.762Z,90.40
2022-08-28T14:18:12.628Z,90.40
2022-08-28T14:20:39.599Z,90.50
2022-08-28T14:23:06.524Z,89.20
2022-08-28T14:25:38.494Z,88.80
2022-08-28T14:28:05.855Z,86.30
2022-08-28T14:30:32.812Z,88.60
2022-08-28T14:32:59.584Z,86.60
2022-08-28T14:35:26.663Z,85.00
2022-08-28T14:37:53.383Z,84.90
2022-08-28T14:40:20.722Z,84.70
2022-08-28T14:42:47.571Z,87.30
2022-08-28T14:45:14.271Z,88.30
2022-08-28T14:47:41.403Z,88.70
2022-08-28T14:50:08.729Z,89.60
2022-08-28T14:52:35.502Z,88.80
2022-08-28T14:55:02.620Z,87.80
2022-08-28T14:57:29.386Z,87.00
2022-08-28T14:59:56.391Z,88.70
2022-08-28T15:02:23.552Z,86.80
2022-08-28T15:04:50.446Z,85.70
2022-08-28T15:07:17.343Z,86.40
2022-08-28T15:09:44.077Z,88.00
2022-08-28T15:12:11.341Z,88.40
2022-08-28T15:14:38.054Z,88.70
2022-08-28T15:17:05.178Z,88.00
2022-08-28T15:19:31.946Z,88.10
2022-08-28T15:21:59.181Z,88.50
2022-08-28T15:24:31.389Z,88.00
2022-08-28T15:26:59.683Z,87.00
2022-08-28T15:29:28.336Z,87.30
2022-08-28T15:31:55.538Z,87.10
2022-08-28T15:34:25.025Z,84.40
2022-08-28T15:36:54.571Z,84.60
2022-08-28T15:39:43.204Z,85.40
2022-08-28T15:42:11.342Z,85.60
2022-08-28T15:44:41.986Z,86.40
2022-08-28T15:47:09.401Z,84.00
2022-08-28T15:49:38.956Z,85.20
2022-08-28T15:52:13.668Z,85.80
2022-08-28T15:54:41.399Z,85.00
2022-08-28T15:57:08.143Z,85.30
2022-08-28T15:59:47.941Z,84.10
2022-08-28T16:02:23.907Z,84.10
2022-08-28T16:04:51.803Z,82.80
2022-08-28T16:07:19.604Z,82.20
2022-08-28T16:09:46.738Z,83.50
2022-08-28T16:12:13.614Z,82.50
2022-08-28T16:14:40.406Z,83.70
2022-08-28T16:17:11.148Z,84.00
2022-08-28T16:19:41.760Z,83.10
2022-08-28T16:22:09.561Z,84.50
2022-08-28T16:24:36.915Z,84.10
2022-08-28T16:27:04.362Z,83.50
2022-08-28T16:29:33.288Z,84.30
2022-08-28T16:32:00.032Z,85.10
2022-08-28T16:34:31.373Z,83.80
2022-08-28T16:36:59.218Z,84.80
2022-08-28T16:39:26.828Z,85.10
2022-08-28T16:41:53.575Z,85.30
2022-08-28T16:44:27.868Z,85.80
2022-08-28T16:46:55.756Z,86.70
2022-08-28T16:49:23.802Z,87.10
2022-08-28T16:51:50.836Z,86.60
2022-08-28T16:54:18.380Z,86.60
2022-08-28T16:56:45.857Z,87.00
2022-08-28T16:59:16.332Z,87.50
2022-08-28T17:01:43.463Z,87.10
2022-08-28T17:04:10.909Z,87.30
2022-08-28T17:06:37.734Z,87.70
2022-08-28T17:09:04.598Z,87.40
2022-08-28T17:11:32.234Z,87.20
2022-08-28T17:14:00.285Z,86.60
2022-08-28T17:16:29.715Z,86.50
2022-08-28T17:18:56.950Z,86.00
2022-08-28T17:21:42.565Z,87.10
2022-08-28T17:24:12.492Z,87.10
2022-08-28T17:26:40.521Z,86.90
2022-08-28T17:29:07.387Z,87.10
2022-08-28T17:31:34.189Z,86.50
2022-08-28T17:34:01.061Z,86.00
2022-08-28T17:36:33.646Z,86.00
2022-08-28T17:39:13.041Z,86.50
2022-08-28T17:41:40.567Z,86.30
2022-08-28T17:44:07.404Z,86.60
2022-08-28T17:46:37.812Z,87.10
2022-08-28T17:49:05.979Z,87.70
2022-08-28T17:51:43.760Z,88.00
2022-08-28T17:54:13.243Z,87.90
2022-08-28T17:56:40.735Z,88.00
2022-08-28T17:59:08.181Z,88.20
2022-08-28T18:01:35.967Z,88.70
2022-08-28T18:04:02.895Z,88.90
2022-08-28T18:06:29.699Z,89.00
2022-08-28T18:08:56.441Z,89.40
2022-08-28T18:11:23.572Z,89.40
2022-08-28T18:13:51.039Z,89.70
2022-08-28T18:16:18.167Z,89.90
2022-08-28T18:18:45.026Z,90.00
2022-08-28T18:21:13.469Z,90.10
2022-08-28T18:23:40.556Z,90.20
2022-08-28T18:26:08.080Z,90.30
2022-08-28T18:28:35.163Z,90.50
2022-08-28T18:31:02.632Z,90.60
2022-08-28T18:33:29.683Z,90.70
2022-08-28T18:35:56.630Z,90.80
2022-08-28T18:38:27.764Z,90.90
2022-08-28T18:40:55.352Z,91.00
2022-08-28T18:43:22.580Z,91.10
2022-08-28T18:45:49.646Z,91.30
2022-08-28T18:48:16.822Z,91.30
2022-08-28T18:50:46.510Z,91.40
2022-08-28T18:53:14.486Z,91.50
2022-08-28T18:55:42.214Z,91.60
2022-08-28T18:58:10.388Z,91.70
2022-08-28T19:00:45.430Z,91.70
2022-08-28T19:03:12.740Z,91.80
2022-08-28T19:05:41.336Z,91.90
2022-08-28T19:08:08.233Z,92.00
2022-08-28T19:10:36.797Z,92.00
2022-08-28T19:13:04.901Z,92.10
2022-08-28T19:15:32.210Z,92.00
2022-08-28T19:18:02.670Z,92.10
2022-08-28T19:20:30.053Z,92.00
2022-08-28T19:22:57.637Z,92.00
2022-08-28T19:25:28.138Z,91.90
2022-08-28T19:27:59.755Z,91.80
2022-08-28T19:30:28.189Z,92.10
2022-08-28T19:32:55.169Z,91.60
2022-08-28T19:35:22.226Z,91.60
2022-08-28T19:37:51.864Z,91.50
2022-08-28T19:40:19.179Z,91.40
2022-08-28T19:42:46.143Z,91.40
2022-08-28T19:45:14.866Z,91.40
2022-08-28T19:47:41.794Z,91.40
2022-08-28T19:50:10.818Z,91.40
2022-08-28T19:52:38.412Z,91.40
2022-08-28T19:55:06.729Z,91.40
2022-08-28T19:57:34.304Z,91.40
2022-08-28T20:00:02.140Z,91.50
2022-08-28T20:02:29.572Z,91.40
2022-08-28T20:04:56.496Z,91.40
2022-08-28T20:07:24.853Z,91.70
2022-08-28T20:09:52.355Z,91.30
2022-08-28T20:12:19.682Z,91.30
2022-08-28T20:14:46.870Z,91.30
2022-08-28T20:17:14.069Z,91.30
2022-08-28T20:19:41.359Z,91.30
2022-08-28T20:22:08.425Z,91.30
2022-08-28T20:24:35.329Z,91.30
2022-08-28T20:27:02.600Z,91.30
2022-08-28T20:29:29.619Z,91.30
2022-08-28T20:31:56.414Z,91.30
2022-08-28T20:34:26.622Z,91.30
2022-08-28T20:36:55.967Z,91.30
2022-08-28T20:39:23.334Z,91.30
2022-08-28T20:41:50.372Z,91.30
2022-08-28T20:44:20.182Z,91.30
2022-08-28T20:46:50.983Z,91.40
2022-08-28T20:49:21.811Z,91.40
2022-08-28T20:51:58.606Z,91.40
2022-08-28T20:54:37.839Z,91.40
2022-08-28T20:57:07.783Z,91.30
2022-08-28T20:59:40.140Z,91.20
2022-08-28T21:02:27.417Z,91.20
2022-08-28T21:04:54.561Z,91.10
2022-08-28T21:07:23.646Z,91.00
2022-08-28T21:10:07.177Z,90.90
2022-08-28T21:12:36.598Z,90.90
2022-08-28T21:15:04.885Z,91.00
2022-08-28T21:17:31.630Z,91.00
2022-08-28T21:20:06.085Z,91.00
2022-08-28T21:22:35.115Z,91.00
2022-08-28T21:25:04.568Z,91.10
2022-08-28T21:27:31.240Z,91.10
2022-08-28T21:29:58.853Z,91.10
2022-08-28T21:32:26.578Z,91.10
2022-08-28T21:34:54.992Z,91.10
2022-08-28T21:37:22.533Z,91.10
2022-08-28T21:39:49.275Z,91.10
2022-08-28T21:42:16.141Z,91.00
2022-08-28T21:44:45.536Z,91.00
2022-08-28T21:47:20.030Z,91.00
2022-08-28T21:49:54.542Z,91.20
2022-08-28T21:52:21.917Z,90.80
2022-08-28T21:54:49.191Z,90.80
2022-08-28T21:57:17.654Z,90.60
2022-08-28T21:59:44.387Z,90.50
2022-08-28T22:02:11.178Z,90.40
2022-08-28T22:04:37.983Z,90.40
2022-08-28T22:07:04.807Z,90.30
2022-08-28T22:09:31.577Z,90.20
2022-08-28T22:11:58.325Z,90.10
2022-08-28T22:14:25.093Z,90.00
2022-08-28T22:16:52.071Z,89.70
2022-08-28T22:19:18.914Z,89.40
2022-08-28T22:22:04.375Z,88.90
2022-08-28T22:24:31.506Z,88.70
2022-08-28T22:26:58.231Z,88.50
2022-08-28T22:29:25.800Z,88.50
2022-08-28T22:31:52.886Z,88.40
2022-08-28T22:34:19.837Z,88.20
2022-08-28T22:36:46.937Z,88.20
2022-08-28T22:39:13.781Z,87.90
2022-08-28T22:41:40.659Z,87.70
2022-08-28T22:44:08.637Z,87.70
2022-08-28T22:46:35.900Z,87.60
2022-08-28T22:49:02.717Z,87.30
2022-08-28T22:51:29.482Z,87.20
2022-08-28T22:53:56.288Z,87.10
2022-08-28T22:56:23.026Z,86.90
2022-08-28T22:58:49.741Z,86.80
2022-08-28T23:01:20.780Z,86.70
2022-08-28T23:03:48.459Z,86.30
2022-08-28T23:06:15.394Z,86.10
2022-08-28T23:08:42.374Z,85.80
2022-08-28T23:11:10.553Z,85.80
2022-08-28T23:13:37.760Z,85.70
2022-08-28T23:16:04.771Z,85.60
2022-08-28T23:18:46.230Z,86.10
2022-08-28T23:21:20.879Z,85.30
2022-08-28T23:23:47.779Z,85.60
2022-08-28T23:26:15.389Z,85.60
2022-08-28T23:28:42.682Z,85.60
2022-08-28T23:31:10.361Z,85.40
2022-08-28T23:33:37.570Z,85.40
2022-08-28T23:36:05.090Z,85.50
2022-08-28T23:38:31.818Z,85.50
2022-08-28T23:40:58.795Z,85.40
2022-08-28T23:43:25.522Z,85.40
2022-08-28T23:45:52.786Z,85.30
2022-08-28T23:48:20.593Z,85.40
2022-08-28T23:50:47.335Z,85.50
2022-08-28T23:53:14.042Z,85.40
2022-08-28T23:55:43.626Z,85.30
2022-08-28T23:58:10.398Z,85.20
